createdAt,value
2018-05-01T00:02:18.443Z,48.40
2018-05-01T00:04:46.690Z,49.47
2018-05-01T00:07:15.808Z,48.10
2018-05-01T00:09:44.844Z,50.00
2018-05-01T00:12:13.012Z,48.37
2018-05-01T00:14:41.188Z,50.70
2018-05-01T00:17:09.394Z,53.77
2018-05-01T00:19:37.633Z,48.17
2018-05-01T00:22:05.802Z,49.20
2018-05-01T00:24:33.989Z,53.67
2018-05-01T00:27:02.167Z,49.43
2018-05-01T00:29:30.946Z,50.67
2018-05-01T00:31:59.255Z,49.23
2018-05-01T00:34:28.362Z,49.63
2018-05-01T00:36:56.556Z,49.97
2018-05-01T00:39:25.588Z,46.73
2018-05-01T00:41:53.827Z,48.03
2018-05-01T00:44:22.008Z,49.47
2018-05-01T00:46:50.266Z,50.50
2018-05-01T00:49:18.478Z,49.50
2018-05-01T00:51:46.723Z,49.70
2018-05-01T00:54:14.894Z,49.60
2018-05-01T00:56:43.830Z,51.13
2018-05-01T00:59:12.000Z,47.90
2018-05-01T01:01:40.379Z,49.57
2018-05-01T01:04:08.573Z,49.17
2018-05-01T01:06:37.446Z,48.57
2018-05-01T01:09:05.665Z,48.60
2018-05-01T01:11:33.895Z,49.40
2018-05-01T01:14:02.070Z,48.20
2018-05-01T01:16:30.266Z,50.73
2018-05-01T01:18:58.525Z,49.27
2018-05-01T01:21:26.798Z,49.00
2018-05-01T01:23:55.178Z,49.30
2018-05-01T01:26:23.377Z,49.60
2018-05-01T01:28:52.412Z,48.07
2018-05-01T01:31:20.621Z,49.23
2018-05-01T01:33:48.820Z,49.97
2018-05-01T01:36:16.249Z,49.40
2018-05-01T01:38:43.702Z,44.00
2018-05-01T01:41:11.133Z,47.33
2018-05-01T01:43:38.771Z,46.30
2018-05-01T01:46:06.268Z,47.10
2018-05-01T01:48:33.711Z,46.77
2018-05-01T01:51:01.144Z,48.47
2018-05-01T01:53:29.386Z,46.47
2018-05-01T01:55:56.836Z,45.43
2018-05-01T01:58:24.265Z,46.60
2018-05-01T02:00:51.730Z,45.20
2018-05-01T02:03:19.170Z,46.20
2018-05-01T02:05:46.591Z,46.47
2018-05-01T02:08:14.047Z,45.83
2018-05-01T02:10:41.471Z,45.40
2018-05-01T02:13:08.896Z,45.33
2018-05-01T02:15:36.546Z,44.00
2018-05-01T02:18:03.980Z,46.07
2018-05-01T02:20:31.403Z,45.17
2018-05-01T02:22:58.855Z,44.07
2018-05-01T02:25:26.287Z,43.27
2018-05-01T02:27:53.728Z,47.43
2018-05-01T02:30:21.169Z,46.00
2018-05-01T02:32:48.594Z,44.03
2018-05-01T02:35:16.748Z,46.63
2018-05-01T02:37:44.236Z,47.07
2018-05-01T02:40:11.684Z,45.97
2018-05-01T02:42:39.144Z,44.10
2018-05-01T02:45:06.599Z,45.93
2018-05-01T02:47:34.029Z,46.53
2018-05-01T02:50:01.925Z,45.57
2018-05-01T02:52:29.407Z,44.30
2018-05-01T02:54:56.921Z,45.80
2018-05-01T02:57:24.361Z,44.37
2018-05-01T02:59:51.935Z,44.13
2018-05-01T03:02:19.369Z,43.57
2018-05-01T03:04:46.803Z,46.03
2018-05-01T03:07:14.258Z,45.43
2018-05-01T03:09:41.696Z,44.13
2018-05-01T03:12:09.141Z,44.17
2018-05-01T03:14:36.595Z,46.03
2018-05-01T03:17:04.028Z,45.80
2018-05-01T03:19:31.480Z,46.57
2018-05-01T03:21:58.971Z,44.27
2018-05-01T03:24:26.410Z,46.63
2018-05-01T03:26:53.847Z,44.13
2018-05-01T03:29:21.304Z,45.47
2018-05-01T03:31:48.901Z,47.40
2018-05-01T03:34:16.329Z,45.47
2018-05-01T03:36:43.781Z,46.13
2018-05-01T03:39:11.252Z,43.87
2018-05-01T03:41:38.668Z,41.63
2018-05-01T03:44:06.112Z,43.73
2018-05-01T03:46:33.605Z,44.27
2018-05-01T03:49:00.997Z,44.50
2018-05-01T03:51:28.447Z,44.63
2018-05-01T03:53:55.885Z,45.50
2018-05-01T03:56:23.326Z,44.93
2018-05-01T03:58:51.560Z,42.00
2018-05-01T04:01:19.000Z,44.97
2018-05-01T04:03:46.430Z,43.37
2018-05-01T04:06:13.890Z,43.67
2018-05-01T04:08:41.313Z,42.27
2018-05-01T04:11:09.635Z,41.70
2018-05-01T04:13:37.088Z,44.10
2018-05-01T04:16:04.533Z,43.47
2018-05-01T04:18:32.020Z,42.40
2018-05-01T04:20:59.508Z,43.60
2018-05-01T04:23:26.958Z,41.97
2018-05-01T04:25:54.773Z,42.33
2018-05-01T04:28:22.230Z,43.97
2018-05-01T04:30:49.650Z,43.70
2018-05-01T04:33:17.075Z,42.67
2018-05-01T04:35:44.542Z,43.30
2018-05-01T04:38:11.981Z,43.10
2018-05-01T04:40:39.440Z,45.80
2018-05-01T04:43:06.885Z,43.73
2018-05-01T04:45:34.313Z,42.67
2018-05-01T04:48:02.505Z,45.97
2018-05-01T04:50:29.964Z,43.73
2018-05-01T04:52:57.419Z,44.60
2018-05-01T04:55:24.871Z,43.53
2018-05-01T04:57:52.361Z,46.20
2018-05-01T05:00:19.797Z,48.03
2018-05-01T05:02:47.245Z,46.87
2018-05-01T05:05:14.737Z,44.70
2018-05-01T05:07:42.190Z,45.10
2018-05-01T05:10:09.606Z,47.47
2018-05-01T05:12:37.083Z,45.70
2018-05-01T05:15:04.516Z,46.27
2018-05-01T05:17:31.969Z,43.97
2018-05-01T05:19:59.435Z,43.60
2018-05-01T05:22:26.863Z,44.30
2018-05-01T05:24:54.288Z,44.57
2018-05-01T05:27:21.728Z,46.70
2018-05-01T05:29:49.209Z,47.37
2018-05-01T05:32:16.630Z,47.63
2018-05-01T05:34:44.090Z,45.23
2018-05-01T05:37:11.579Z,45.60
2018-05-01T05:39:39.007Z,45.53
2018-05-01T05:42:06.464Z,47.47
2018-05-01T05:44:33.893Z,48.13
2018-05-01T05:47:02.843Z,48.23
2018-05-01T05:49:30.333Z,45.53
2018-05-01T05:51:57.867Z,44.33
2018-05-01T05:54:25.324Z,47.13
2018-05-01T05:56:52.775Z,45.73
2018-05-01T05:59:20.225Z,43.53
2018-05-01T06:01:47.782Z,43.53
2018-05-01T06:04:15.230Z,42.83
2018-05-01T06:06:42.669Z,44.43
2018-05-01T06:09:10.133Z,44.17
2018-05-01T06:11:37.654Z,44.20
2018-05-01T06:14:05.074Z,43.27
2018-05-01T06:16:32.494Z,46.97
2018-05-01T06:18:59.941Z,46.17
2018-05-01T06:21:27.370Z,46.67
2018-05-01T06:23:54.831Z,45.73
2018-05-01T06:26:22.289Z,48.30
2018-05-01T06:28:49.716Z,48.73
2018-05-01T06:31:17.180Z,45.10
2018-05-01T06:33:44.656Z,43.80
2018-05-01T06:36:12.100Z,46.67
2018-05-01T06:38:40.245Z,50.10
2018-05-01T06:41:07.741Z,44.93
2018-05-01T06:43:35.163Z,46.63
2018-05-01T06:46:02.861Z,48.23
2018-05-01T06:48:30.320Z,51.37
2018-05-01T06:50:57.754Z,48.40
2018-05-01T06:53:25.182Z,49.73
2018-05-01T06:55:53.452Z,48.63
2018-05-01T06:58:20.890Z,49.10
2018-05-01T07:00:50.155Z,116.63
2018-05-01T07:03:20.739Z,48.97
2018-05-01T07:05:48.679Z,52.83
2018-05-01T07:08:16.313Z,50.77
2018-05-01T07:10:44.389Z,51.20
2018-05-01T07:13:12.720Z,49.80
2018-05-01T07:15:40.179Z,49.57
2018-05-01T07:18:07.639Z,50.50
2018-05-01T07:20:35.076Z,49.83
2018-05-01T07:23:02.506Z,51.23
2018-05-01T07:25:29.958Z,49.90
2018-05-01T07:27:57.396Z,53.23
2018-05-01T07:30:24.821Z,49.87
2018-05-01T07:32:52.266Z,51.83
2018-05-01T07:35:19.693Z,57.13
2018-05-01T07:37:47.138Z,49.77
2018-05-01T07:40:14.581Z,51.33
2018-05-01T07:42:42.007Z,51.23
2018-05-01T07:45:09.491Z,50.87
2018-05-01T07:47:38.023Z,51.53
2018-05-01T07:50:05.694Z,54.53
2018-05-01T07:52:33.121Z,52.07
2018-05-01T07:55:00.604Z,51.57
2018-05-01T07:57:29.758Z,50.73
2018-05-01T07:59:57.196Z,56.27
2018-05-01T08:02:24.668Z,53.27
2018-05-01T08:04:52.123Z,53.73
2018-05-01T08:07:19.562Z,52.30
2018-05-01T08:09:47.902Z,53.23
2018-05-01T08:12:15.341Z,54.77
2018-05-01T08:14:44.082Z,52.40
2018-05-01T08:17:12.204Z,53.10
2018-05-01T08:19:40.013Z,53.77
2018-05-01T08:22:07.495Z,52.87
2018-05-01T08:24:34.959Z,52.03
2018-05-01T08:27:02.418Z,56.87
2018-05-01T08:29:29.856Z,56.17
2018-05-01T08:31:57.359Z,52.93
2018-05-01T08:34:25.082Z,54.60
2018-05-01T08:36:52.526Z,53.57
2018-05-01T08:39:19.991Z,54.37
2018-05-01T08:41:47.427Z,55.63
2018-05-01T08:44:14.889Z,55.20
2018-05-01T08:46:43.121Z,56.27
2018-05-01T08:49:10.560Z,53.63
2018-05-01T08:51:38.389Z,56.23
2018-05-01T08:54:05.852Z,55.73
2018-05-01T08:56:33.338Z,53.30
2018-05-01T08:59:00.797Z,55.37
2018-05-01T09:01:28.248Z,58.00
2018-05-01T09:03:55.887Z,54.13
2018-05-01T09:06:23.349Z,54.13
2018-05-01T09:08:50.849Z,53.93
2018-05-01T09:11:18.289Z,54.83
2018-05-01T09:13:45.747Z,54.77
2018-05-01T09:16:13.753Z,56.23
2018-05-01T09:18:41.192Z,53.70
2018-05-01T09:21:09.454Z,55.73
2018-05-01T09:23:36.922Z,52.90
2018-05-01T09:26:04.367Z,55.20
2018-05-01T09:28:31.802Z,55.97
2018-05-01T09:30:59.892Z,55.17
2018-05-01T09:33:27.320Z,55.40
2018-05-01T09:35:54.750Z,55.10
2018-05-01T09:38:22.208Z,59.07
2018-05-01T09:40:49.645Z,56.03
2018-05-01T09:43:17.111Z,57.00
2018-05-01T09:45:44.552Z,57.40
2018-05-01T09:48:11.985Z,55.93
2018-05-01T09:50:39.420Z,58.50
2018-05-01T09:53:07.621Z,57.47
2018-05-01T09:55:36.888Z,56.07
2018-05-01T09:58:05.105Z,56.17
2018-05-01T10:00:33.300Z,57.77
2018-05-01T10:03:01.575Z,58.93
2018-05-01T10:05:29.766Z,58.00
2018-05-01T10:07:58.893Z,59.90
2018-05-01T10:10:27.672Z,56.27
2018-05-01T10:12:56.261Z,60.33
2018-05-01T10:15:24.872Z,59.30
2018-05-01T10:17:53.073Z,57.27
2018-05-01T10:20:21.272Z,59.33
2018-05-01T10:22:50.256Z,57.47
2018-05-01T10:25:18.472Z,58.37
2018-05-01T10:27:46.653Z,56.60
2018-05-01T10:30:14.882Z,58.43
2018-05-01T10:32:43.885Z,59.30
2018-05-01T10:35:12.830Z,59.57
2018-05-01T10:37:41.030Z,59.03
2018-05-01T10:40:09.202Z,63.33
2018-05-01T10:42:37.376Z,58.83
2018-05-01T10:45:05.584Z,59.80
2018-05-01T10:47:33.799Z,58.07
2018-05-01T10:50:01.999Z,59.77
2018-05-01T10:52:30.223Z,60.80
2018-05-01T10:54:58.445Z,61.63
2018-05-01T10:57:26.629Z,63.30
2018-05-01T10:59:54.850Z,62.57
2018-05-01T11:02:23.057Z,61.40
2018-05-01T11:04:51.258Z,63.97
2018-05-01T11:07:19.456Z,62.53
2018-05-01T11:09:47.653Z,63.07
2018-05-01T11:12:15.857Z,64.40
2018-05-01T11:14:44.069Z,60.50
2018-05-01T11:17:12.251Z,62.23
2018-05-01T11:19:41.199Z,62.50
2018-05-01T11:22:09.414Z,61.83
2018-05-01T11:24:37.640Z,61.57
2018-05-01T11:27:05.843Z,60.50
2018-05-01T11:29:34.094Z,60.87
2018-05-01T11:32:03.362Z,60.97
2018-05-01T11:34:31.547Z,61.23
2018-05-01T11:37:00.113Z,62.63
2018-05-01T11:39:28.303Z,61.17
2018-05-01T11:41:56.502Z,59.63
2018-05-01T11:44:24.704Z,62.80
2018-05-01T11:46:52.917Z,60.30
2018-05-01T11:49:21.101Z,61.93
2018-05-01T11:51:49.321Z,60.10
2018-05-01T11:54:17.498Z,60.17
2018-05-01T11:56:45.686Z,59.90
2018-05-01T11:59:13.893Z,60.33
2018-05-01T12:01:42.074Z,59.50
2018-05-01T12:04:10.281Z,62.97
2018-05-01T12:06:38.484Z,61.27
2018-05-01T12:09:06.675Z,61.00
2018-05-01T12:11:35.660Z,62.53
2018-05-01T12:14:03.908Z,60.63
2018-05-01T12:16:32.145Z,63.60
2018-05-01T12:19:00.368Z,62.50
2018-05-01T12:21:28.579Z,66.00
2018-05-01T12:23:57.540Z,65.27
2018-05-01T12:26:25.735Z,63.20
2018-05-01T12:28:53.949Z,66.07
2018-05-01T12:31:22.136Z,62.70
2018-05-01T12:33:50.327Z,62.13
2018-05-01T12:36:18.521Z,63.50
2018-05-01T12:38:47.508Z,66.33
2018-05-01T12:41:16.632Z,64.93
2018-05-01T12:43:44.851Z,64.83
2018-05-01T12:46:13.056Z,64.57
2018-05-01T12:48:41.298Z,63.73
2018-05-01T12:51:09.492Z,64.73
2018-05-01T12:53:37.670Z,65.77
2018-05-01T12:56:06.097Z,62.60
2018-05-01T12:58:34.339Z,67.03
2018-05-01T13:01:02.524Z,64.33
2018-05-01T13:03:30.704Z,63.73
2018-05-01T13:05:59.682Z,65.60
2018-05-01T13:08:27.867Z,66.43
2018-05-01T13:10:56.066Z,62.77
2018-05-01T13:13:24.344Z,67.07
2018-05-01T13:15:52.534Z,64.87
2018-05-01T13:18:20.742Z,67.20
2018-05-01T13:20:48.939Z,62.27
2018-05-01T13:23:17.148Z,62.87
2018-05-01T13:25:45.376Z,63.23
2018-05-01T13:28:13.595Z,65.23
2018-05-01T13:30:41.774Z,62.83
2018-05-01T13:33:10.181Z,62.57
2018-05-01T13:35:38.397Z,61.87
2018-05-01T13:38:06.613Z,63.43
2018-05-01T13:40:34.807Z,62.97
2018-05-01T13:43:02.998Z,66.07
2018-05-01T13:45:31.174Z,63.40
2018-05-01T13:47:59.423Z,66.57
2018-05-01T13:50:27.785Z,64.67
2018-05-01T13:52:55.912Z,64.50
2018-05-01T13:55:24.108Z,65.63
2018-05-01T13:57:52.530Z,66.83
2018-05-01T14:00:20.709Z,68.53
2018-05-01T14:02:48.985Z,64.43
2018-05-01T14:05:17.229Z,67.30
2018-05-01T14:07:45.433Z,66.70
2018-05-01T14:10:13.633Z,68.37
2018-05-01T14:12:41.853Z,68.53
2018-05-01T14:15:10.038Z,69.60
2018-05-01T14:17:38.253Z,69.57
2018-05-01T14:20:06.453Z,67.67
2018-05-01T14:22:34.627Z,69.03
2018-05-01T14:25:02.809Z,69.37
2018-05-01T14:27:31.037Z,70.50
2018-05-01T14:29:59.207Z,71.80
2018-05-01T14:32:27.382Z,73.77
2018-05-01T14:34:55.598Z,72.27
2018-05-01T14:37:23.792Z,73.30
2018-05-01T14:39:51.981Z,71.10
2018-05-01T14:42:20.228Z,73.60
2018-05-01T14:44:48.486Z,72.67
2018-05-01T14:47:16.670Z,74.13
2018-05-01T14:49:44.861Z,75.73
2018-05-01T14:52:13.810Z,74.53
2018-05-01T14:54:41.995Z,73.63
2018-05-01T14:57:11.070Z,75.47
2018-05-01T14:59:39.421Z,76.70
2018-05-01T15:02:07.602Z,74.77
2018-05-01T15:04:35.834Z,73.80
2018-05-01T15:07:04.005Z,73.00
2018-05-01T15:09:32.184Z,75.17
2018-05-01T15:12:00.377Z,75.57
2018-05-01T15:14:28.559Z,76.00
2018-05-01T15:16:56.925Z,73.00
2018-05-01T15:19:26.242Z,74.33
2018-05-01T15:21:55.181Z,72.77
2018-05-01T15:24:23.388Z,70.87
2018-05-01T15:26:52.361Z,71.43
2018-05-01T15:29:20.543Z,70.30
2018-05-01T15:31:48.726Z,69.70
2018-05-01T15:34:16.956Z,70.93
2018-05-01T15:36:45.133Z,71.03
2018-05-01T15:39:13.345Z,69.37
2018-05-01T15:41:41.541Z,71.03
2018-05-01T15:44:09.861Z,71.67
2018-05-01T15:46:38.035Z,69.60
2018-05-01T15:49:06.232Z,70.90
2018-05-01T15:51:34.509Z,70.57
2018-05-01T15:54:03.551Z,71.43
2018-05-01T15:56:31.795Z,71.47
2018-05-01T15:58:59.982Z,73.57
2018-05-01T16:01:28.184Z,72.07
2018-05-01T16:03:57.401Z,70.97
2018-05-01T16:06:25.582Z,73.10
2018-05-01T16:08:53.856Z,68.30
2018-05-01T16:11:22.068Z,72.80
2018-05-01T16:13:50.358Z,65.73
2018-05-01T16:16:18.507Z,71.27
2018-05-01T16:18:46.706Z,66.30
2018-05-01T16:21:15.239Z,69.20
2018-05-01T16:23:43.448Z,67.47
2018-05-01T16:26:11.636Z,64.97
2018-05-01T16:28:40.609Z,66.50
2018-05-01T16:31:08.856Z,66.33
2018-05-01T16:33:37.032Z,67.10
2018-05-01T16:36:05.428Z,70.47
2018-05-01T16:38:33.613Z,67.47
2018-05-01T16:41:02.394Z,66.93
2018-05-01T16:43:30.600Z,68.83
2018-05-01T16:45:59.564Z,69.37
2018-05-01T16:48:28.603Z,68.27
2018-05-01T16:50:57.580Z,70.97
2018-05-01T16:53:26.877Z,69.93
2018-05-01T16:55:55.983Z,70.40
2018-05-01T16:58:24.178Z,68.90
2018-05-01T17:00:52.441Z,70.17
2018-05-01T17:03:20.617Z,70.13
2018-05-01T17:05:48.855Z,65.57
2018-05-01T17:08:17.040Z,65.87
2018-05-01T17:13:20.161Z,66.37
2018-05-01T17:15:48.355Z,66.80
2018-05-01T17:18:16.585Z,68.90
2018-05-01T17:20:44.801Z,67.60
2018-05-01T17:23:13.057Z,66.60
2018-05-01T17:25:41.243Z,67.13
2018-05-01T17:28:09.518Z,66.87
2018-05-01T17:30:37.753Z,64.57
2018-05-01T17:33:05.926Z,64.63
2018-05-01T17:35:34.118Z,64.97
2018-05-01T17:38:02.364Z,64.93
2018-05-01T17:40:30.615Z,73.40
2018-05-01T17:42:58.830Z,65.60
2018-05-01T17:45:27.778Z,65.93
2018-05-01T17:47:56.698Z,64.50
2018-05-01T17:50:26.406Z,66.07
2018-05-01T17:52:56.739Z,66.57
2018-05-01T17:55:25.827Z,65.67
2018-05-01T17:57:54.243Z,64.57
2018-05-01T18:00:22.454Z,65.50
2018-05-01T18:02:50.686Z,64.87
2018-05-01T18:05:18.885Z,65.20
2018-05-01T18:07:47.090Z,66.10
2018-05-01T18:10:15.273Z,64.10
2018-05-01T18:12:43.589Z,64.60
2018-05-01T18:15:11.702Z,66.47
2018-05-01T18:17:39.873Z,66.47
2018-05-01T18:20:08.868Z,72.83
2018-05-01T18:22:37.046Z,69.00
2018-05-01T18:25:05.272Z,63.10
2018-05-01T18:27:33.478Z,64.13
2018-05-01T18:30:01.679Z,65.10
2018-05-01T18:32:29.863Z,65.43
2018-05-01T18:34:58.148Z,64.30
2018-05-01T18:37:27.352Z,66.40
2018-05-01T18:39:55.565Z,62.60
2018-05-01T18:42:23.752Z,63.93
2018-05-01T18:44:51.983Z,65.97
2018-05-01T18:47:20.964Z,66.13
2018-05-01T18:49:49.191Z,65.03
2018-05-01T18:52:18.794Z,65.30
2018-05-01T18:54:47.048Z,66.03
2018-05-01T18:57:16.705Z,61.93
2018-05-01T18:59:46.496Z,61.17
2018-05-01T19:02:17.797Z,61.50
2018-05-01T19:04:46.076Z,67.80
2018-05-01T19:07:14.325Z,67.13
2018-05-01T19:09:42.645Z,64.40
2018-05-01T19:12:10.933Z,61.90
2018-05-01T19:14:39.154Z,61.43
2018-05-01T19:17:07.990Z,58.77
2018-05-01T19:19:36.677Z,60.43
2018-05-01T19:22:05.483Z,62.67
2018-05-01T19:24:33.994Z,55.40
2018-05-01T19:27:04.987Z,61.60
2018-05-01T19:29:33.729Z,59.90
2018-05-01T19:32:02.048Z,60.43
2018-05-01T19:34:31.306Z,61.07
2018-05-01T19:37:00.052Z,60.30
2018-05-01T19:39:28.390Z,60.33
2018-05-01T19:41:56.623Z,61.07
2018-05-01T19:44:25.594Z,63.30
2018-05-01T19:46:54.269Z,58.13
2018-05-01T19:49:23.062Z,57.13
2018-05-01T19:51:52.655Z,60.70
2018-05-01T19:54:21.283Z,57.10
2018-05-01T19:56:49.990Z,59.27
2018-05-01T19:59:18.233Z,59.37
2018-05-01T20:01:47.059Z,59.40
2018-05-01T20:04:17.180Z,63.83
2018-05-01T20:06:45.369Z,61.23
2018-05-01T20:09:14.693Z,59.77
2018-05-01T20:11:42.956Z,58.50
2018-05-01T20:14:11.195Z,55.97
2018-05-01T20:16:39.436Z,60.63
2018-05-01T20:19:07.657Z,62.80
2018-05-01T20:21:35.962Z,60.43
2018-05-01T20:24:04.260Z,58.03
2018-05-01T20:26:32.446Z,58.13
2018-05-01T20:29:00.648Z,59.07
2018-05-01T20:31:28.826Z,59.60
2018-05-01T20:33:57.065Z,59.63
2018-05-01T20:36:25.312Z,55.53
2018-05-01T20:38:53.511Z,58.27
2018-05-01T20:41:21.703Z,59.20
2018-05-01T20:43:50.753Z,56.00
2018-05-01T20:46:19.001Z,59.03
2018-05-01T20:48:47.215Z,62.67
2018-05-01T20:51:15.447Z,58.77
2018-05-01T20:53:43.623Z,64.87
2018-05-01T20:56:11.798Z,57.77
2018-05-01T20:58:40.047Z,56.93
2018-05-01T21:01:08.234Z,58.77
2018-05-01T21:03:36.420Z,59.50
2018-05-01T21:06:04.620Z,57.27
2018-05-01T21:08:32.800Z,60.20
2018-05-01T21:11:00.978Z,59.73
2018-05-01T21:13:29.210Z,62.10
2018-05-01T21:15:57.404Z,59.20
2018-05-01T21:18:25.600Z,57.27
2018-05-01T21:20:53.819Z,59.53
2018-05-01T21:23:22.031Z,59.27
2018-05-01T21:25:50.226Z,57.43
2018-05-01T21:28:20.006Z,57.03
2018-05-01T21:30:48.953Z,59.27
2018-05-01T21:33:17.209Z,55.67
2018-05-01T21:35:45.422Z,54.90
2018-05-01T21:38:13.661Z,60.00
2018-05-01T21:40:41.870Z,56.43
2018-05-01T21:43:10.065Z,59.57
2018-05-01T21:45:41.042Z,54.00
2018-05-01T21:48:09.219Z,56.57
2018-05-01T21:50:37.882Z,55.07
2018-05-01T21:53:06.102Z,54.20
2018-05-01T21:55:34.987Z,54.90
2018-05-01T21:58:03.200Z,57.83
2018-05-01T22:00:32.264Z,58.67
2018-05-01T22:03:00.453Z,56.80
2018-05-01T22:05:28.665Z,59.80
2018-05-01T22:07:56.833Z,56.00
2018-05-01T22:10:25.086Z,58.20
2018-05-01T22:12:53.283Z,55.17
2018-05-01T22:15:22.240Z,57.23
2018-05-01T22:17:50.420Z,58.40
2018-05-01T22:20:18.627Z,58.33
2018-05-01T22:22:47.521Z,57.43
2018-05-01T22:25:15.698Z,59.17
2018-05-01T22:27:43.932Z,59.50
2018-05-01T22:30:12.145Z,57.43
2018-05-01T22:32:41.043Z,59.37
2018-05-01T22:35:09.276Z,57.03
2018-05-01T22:37:37.466Z,55.37
2018-05-01T22:40:05.723Z,57.80
2018-05-01T22:42:34.107Z,56.27
2018-05-01T22:45:02.296Z,59.57
2018-05-01T22:47:30.496Z,60.37
2018-05-01T22:49:58.698Z,55.57
2018-05-01T22:52:26.877Z,55.80
2018-05-01T22:54:55.094Z,59.13
2018-05-01T22:57:23.342Z,58.60
2018-05-01T22:59:51.545Z,55.87
2018-05-01T23:02:20.498Z,58.13
2018-05-01T23:04:48.711Z,55.63
2018-05-01T23:07:16.904Z,56.23
2018-05-01T23:09:45.467Z,56.67
2018-05-01T23:12:14.495Z,56.20
2018-05-01T23:14:42.684Z,56.87
2018-05-01T23:17:10.866Z,56.97
2018-05-01T23:19:39.382Z,58.80
2018-05-01T23:22:07.625Z,55.97
2018-05-01T23:24:35.825Z,60.10
2018-05-01T23:27:04.096Z,54.83
2018-05-01T23:29:32.283Z,58.67
2018-05-01T23:32:00.523Z,59.70
2018-05-01T23:34:28.716Z,56.97
2018-05-01T23:36:56.896Z,58.00
2018-05-01T23:39:25.870Z,55.97
2018-05-01T23:41:54.074Z,55.23
2018-05-01T23:44:22.427Z,57.00
2018-05-01T23:46:50.595Z,54.47
2018-05-01T23:49:18.817Z,56.70
2018-05-01T23:51:47.759Z,55.67
2018-05-01T23:54:16.419Z,56.47
2018-05-01T23:56:44.777Z,58.97
2018-05-01T23:59:12.994Z,59.93
